Tramper — PHAA — position and weather

sailwx.info

Track history (hours):
 
Tides and Currents Weather Stations Pressure Air Temp Water Temp Dewpoint Dewpoint Depression Visibility Wind Speed Wind Dir Waves Ship Positions

Tramper

Last reported at 2017-Nov-17 19:20 UTC. Time now 2017-Nov-18 01:17 UTC.
Position N 53°01' E 004°23'.

Length 101 m; beam 20 m.

Type: Cargo ship. MMSI: 245867000.

Date/timePositionNaut miles runAvg speedWind from/ knotsBaromVisibWave heightAir tempDewpointWater temp
2017-Nov-17 19:20N 53°01' E 004°23'514.0
2017-Nov-17 18:59N 52°57' E 004°20'714.1
2017-Nov-17 18:30N 52°51' E 004°15'2214.8
2017-Nov-17 16:59N 52°35' E 003°50'1715.2
2017-Nov-17 15:52N 52°22' E 003°30'6516.1
2017-Nov-17 11:51N 51°34' E 002°20'616.3
2017-Nov-17 11:30N 51°30' E 002°15'815.7
2017-Nov-17 11:00N 51°23' E 002°10'815.7
2017-Nov-17 10:30N 51°15' E 002°05'815.7
2017-Nov-17 10:00N 51°11' E 001°55'815.2
2017-Nov-17 09:30N 51°06' E 001°45'714.3
2017-Nov-17 09:00N 51°01' E 001°38'713.3
2017-Nov-17 08:30N 50°56' E 001°30'612.1
2017-Nov-17 08:00N 50°51' E 001°25'611.8
2017-Nov-17 07:31N 50°45' E 001°22'611.8
2017-Nov-17 07:00N 50°40' E 001°16'712.3
2017-Nov-17 06:25N 50°35' E 001°08'612.4
2017-Nov-17 05:58N 50°31' E 001°02'711.8
2017-Nov-17 05:23N 50°28' E 000°53'612.5
2017-Nov-17 04:53N 50°26' E 000°43'512.4
2017-Nov-17 04:29N 50°25' E 000°36'612.1
2017-Nov-17 04:00N 50°24' E 000°27'611.9
2017-Nov-17 03:30N 50°22' E 000°18'611.8
2017-Nov-17 03:00N 50°21' E 000°09'611.7
2017-Nov-17 02:30N 50°19' E 000°00'611.7
2017-Nov-17 02:00N 50°17' W 000°08'611.6
2017-Nov-17 01:31N 50°16' W 000°17'611.3
2017-Nov-17 01:00N 50°14' W 000°26'1111.1
2017-Nov-16 23:58N 50°11' W 000°43'511.2
2017-Nov-16 23:30N 50°10' W 000°51'611.7
2017-Nov-16 23:01N 50°08' W 000°60'612.4
2017-Nov-16 22:30N 50°07' W 001°09'713.1
2017-Nov-16 22:00N 50°05' W 001°19'713.9
2017-Nov-16 21:31N 50°03' W 001°29'714.9
2017-Nov-16 21:00N 50°01' W 001°40'815.8
2017-Nov-16 20:30N 49°59' W 001°52'816.3
2017-Nov-16 20:00N 49°57' W 002°05'816.9
2017-Nov-16 19:30N 49°55' W 002°17'916.6
2017-Nov-16 18:57N 49°53' W 002°31'716.2
2017-Nov-16 18:30N 49°51' W 002°42'816.0
2017-Nov-16 18:00N 49°49' W 002°54'815.8
2017-Nov-16 17:30N 49°44' W 003°05'815.7
2017-Nov-16 17:00N 49°40' W 003°15'815.7
2017-Nov-16 16:31N 49°36' W 003°25'815.8
2017-Nov-16 16:00N 49°32' W 003°35'7215.2
2017-Nov-16 11:14N 48°56' W 005°11'614.2
2017-Nov-16 10:51N 48°53' W 005°18'513.8
2017-Nov-16 10:27N 48°50' W 005°25'1713.1
2017-Nov-16 09:09N 48°37' W 005°43'1512.1
2017-Nov-16 07:53N 48°22' W 005°45'513.5
2017-Nov-16 07:30N 48°18' W 005°41'713.8
2017-Nov-16 06:59N 48°12' W 005°35'713.0
2017-Nov-16 06:29N 48°07' W 005°29'611.9
2017-Nov-16 06:00N 48°02' W 005°25'611.7
2017-Nov-16 05:30N 47°57' W 005°20'611.8
2017-Nov-16 04:59N 47°52' W 005°14'611.8
2017-Nov-16 04:31N 47°49' W 005°08'612.1
2017-Nov-16 04:01N 47°46' W 004°60'612.3
2017-Nov-16 03:30N 47°43' W 004°51'712.3
2017-Nov-16 02:59N 47°41' W 004°43'612.3
2017-Nov-16 02:30N 47°38' W 004°34'612.3
2017-Nov-16 02:00N 47°35' W 004°27'612.5
2017-Nov-16 01:31N 47°33' W 004°18'612.7
2017-Nov-16 01:00N 47°30' W 004°10'713.0
2017-Nov-16 00:30N 47°27' W 004°01'612.9
2017-Nov-16 00:00N 47°24' W 003°52'714.7
2017-Nov-15 23:30N 47°21' W 003°43'611.1
2017-Nov-15 23:00N 47°19' W 003°35'713.1
2017-Nov-15 22:30N 47°16' W 003°27'613.0
2017-Nov-15 22:00N 47°13' W 003°18'612.7
2017-Nov-15 21:30N 47°10' W 003°10'612.8
2017-Nov-15 21:01N 47°07' W 003°01'713.1
2017-Nov-15 20:30N 47°04' W 002°53'713.4
2017-Nov-15 20:00N 47°02' W 002°43'612.4
2017-Nov-15 19:30N 47°03' W 002°34'713.7
2017-Nov-15 19:01N 47°06' W 002°26'611.4
2017-Nov-15 18:31N 47°09' W 002°19'714.0
2017-Nov-15 18:00N 47°15' W 002°13'4 7.3
2017-Nov-15 17:29N 47°18' W 002°09'0 0.0
2017-Nov-15 16:59N 47°18' W 002°09'0 0.0
2017-Nov-15 16:29N 47°18' W 002°09'0 0.0
2017-Nov-15 15:59N 47°18' W 002°09'0 0.0
2017-Nov-15 15:23N 47°18' W 002°09'0 0.0
2017-Nov-15 14:59N 47°18' W 002°09'0 0.0
2017-Nov-15 14:29N 47°18' W 002°09'0 0.0
2017-Nov-15 13:56N 47°18' W 002°09'0 0.0
2017-Nov-15 13:26N 47°18' W 002°09'0 0.0
2017-Nov-15 12:59N 47°18' W 002°09'0 0.0
2017-Nov-15 12:20N 47°18' W 002°09'0 0.0
2017-Nov-15 11:59N 47°18' W 002°09'0 0.0
2017-Nov-15 11:29N 47°18' W 002°09'0 0.0
2017-Nov-15 10:59N 47°18' W 002°09'0 0.0
2017-Nov-15 10:29N 47°18' W 002°09'0 0.0
2017-Nov-15 09:59N 47°18' W 002°09'0 0.3
2017-Nov-15 09:30N 47°18' W 002°09'3 6.4
2017-Nov-15 09:00N 47°16' W 002°12'713.4
2017-Nov-15 08:31N 47°10' W 002°18'611.4
2017-Nov-15 08:01N 47°06' W 002°24'714.8
2017-Nov-15 07:30N 47°02' W 002°33'714.4
2017-Nov-15 07:00N 46°59' W 002°43'714.4
2017-Nov-15 06:31N 46°58' W 002°53'714.1
2017-Nov-15 06:00N 46°57' W 003°03'714.3
2017-Nov-15 05:30N 46°57' W 003°14'2 3.3
2017-Nov-15 05:00N 46°57' W 003°16'0 0.7
2017-Nov-15 04:31N 46°57' W 003°16'2 3.4
2017-Nov-15 04:01N 46°57' W 003°18'611.2
2017-Nov-15 03:30N 46°56' W 003°26'613.0
2017-Nov-15 03:01N 46°55' W 003°36'713.1
2017-Nov-15 02:29N 46°55' W 003°46'613.0
2017-Nov-15 02:01N 46°54' W 003°55'713.0
2017-Nov-15 01:30N 46°54' W 004°04'612.9
2017-Nov-15 01:01N 46°54' W 004°14'613.0
2017-Nov-15 00:31N 46°54' W 004°23'713.3
2017-Nov-15 00:00N 46°54' W 004°33'713.2
2017-Nov-14 23:28N 46°53' W 004°43'613.5
2017-Nov-14 23:00N 46°53' W 004°53'813.8
2017-Nov-14 22:27N 46°52' W 005°04'613.6
2017-Nov-14 22:00N 46°52' W 005°12'611.2
2017-Nov-14 21:30N 46°52' W 005°21'612.9
2017-Nov-14 21:00N 46°51' W 005°30'712.8
2017-Nov-14 20:28N 46°51' W 005°40'612.8
2017-Nov-14 20:00N 46°51' W 005°49'713.7
2017-Nov-14 19:30N 46°50' W 005°59'714.1
2017-Nov-14 19:00N 46°50' W 006°09'714.4
2017-Nov-14 18:30N 46°50' W 006°19'814.5
2017-Nov-14 17:59N 46°50' W 006°31'814.6
2017-Nov-14 17:26N 46°49' W 006°42'914.7
2017-Nov-14 16:48N 46°49' W 006°56'514.5
2017-Nov-14 16:30N 46°48' W 007°02'  
Track history (hours):
 
Tides and Currents Weather Stations Pressure Air Temp Water Temp Dewpoint Dewpoint Depression Visibility Wind Speed Wind Dir Waves Ship Positions

Tramper

Last reported at 2017-Nov-17 19:20 UTC. Time now 2017-Nov-18 01:17 UTC.
Position N 53°01' E 004°23'.

Length 101 m; beam 20 m.

Type: Cargo ship. MMSI: 245867000.

Date/timePositionNaut miles runAvg speedWind from/ knotsBaromVisibWave heightAir tempDewpointWater temp
2017-Nov-17 19:20N 53°01' E 004°23'514.0
2017-Nov-17 18:59N 52°57' E 004°20'714.1
2017-Nov-17 18:30N 52°51' E 004°15'2214.8
2017-Nov-17 16:59N 52°35' E 003°50'1715.2
2017-Nov-17 15:52N 52°22' E 003°30'6516.1
2017-Nov-17 11:51N 51°34' E 002°20'616.3
2017-Nov-17 11:30N 51°30' E 002°15'815.7
2017-Nov-17 11:00N 51°23' E 002°10'815.7
2017-Nov-17 10:30N 51°15' E 002°05'815.7
2017-Nov-17 10:00N 51°11' E 001°55'815.2
2017-Nov-17 09:30N 51°06' E 001°45'714.3
2017-Nov-17 09:00N 51°01' E 001°38'713.3
2017-Nov-17 08:30N 50°56' E 001°30'612.1
2017-Nov-17 08:00N 50°51' E 001°25'611.8
2017-Nov-17 07:31N 50°45' E 001°22'611.8
2017-Nov-17 07:00N 50°40' E 001°16'712.3
2017-Nov-17 06:25N 50°35' E 001°08'612.4
2017-Nov-17 05:58N 50°31' E 001°02'711.8
2017-Nov-17 05:23N 50°28' E 000°53'612.5
2017-Nov-17 04:53N 50°26' E 000°43'512.4
2017-Nov-17 04:29N 50°25' E 000°36'612.1
2017-Nov-17 04:00N 50°24' E 000°27'611.9
2017-Nov-17 03:30N 50°22' E 000°18'611.8
2017-Nov-17 03:00N 50°21' E 000°09'611.7
2017-Nov-17 02:30N 50°19' E 000°00'611.7
2017-Nov-17 02:00N 50°17' W 000°08'611.6
2017-Nov-17 01:31N 50°16' W 000°17'611.3
2017-Nov-17 01:00N 50°14' W 000°26'1111.1
2017-Nov-16 23:58N 50°11' W 000°43'511.2
2017-Nov-16 23:30N 50°10' W 000°51'611.7
2017-Nov-16 23:01N 50°08' W 000°60'612.4
2017-Nov-16 22:30N 50°07' W 001°09'713.1
2017-Nov-16 22:00N 50°05' W 001°19'713.9
2017-Nov-16 21:31N 50°03' W 001°29'714.9
2017-Nov-16 21:00N 50°01' W 001°40'815.8
2017-Nov-16 20:30N 49°59' W 001°52'816.3
2017-Nov-16 20:00N 49°57' W 002°05'816.9
2017-Nov-16 19:30N 49°55' W 002°17'916.6
2017-Nov-16 18:57N 49°53' W 002°31'716.2
2017-Nov-16 18:30N 49°51' W 002°42'816.0
2017-Nov-16 18:00N 49°49' W 002°54'815.8
2017-Nov-16 17:30N 49°44' W 003°05'815.7
2017-Nov-16 17:00N 49°40' W 003°15'815.7
2017-Nov-16 16:31N 49°36' W 003°25'815.8
2017-Nov-16 16:00N 49°32' W 003°35'7215.2
2017-Nov-16 11:14N 48°56' W 005°11'614.2
2017-Nov-16 10:51N 48°53' W 005°18'513.8
2017-Nov-16 10:27N 48°50' W 005°25'1713.1
2017-Nov-16 09:09N 48°37' W 005°43'1512.1
2017-Nov-16 07:53N 48°22' W 005°45'513.5
2017-Nov-16 07:30N 48°18' W 005°41'713.8
2017-Nov-16 06:59N 48°12' W 005°35'713.0
2017-Nov-16 06:29N 48°07' W 005°29'611.9
2017-Nov-16 06:00N 48°02' W 005°25'611.7
2017-Nov-16 05:30N 47°57' W 005°20'611.8
2017-Nov-16 04:59N 47°52' W 005°14'611.8
2017-Nov-16 04:31N 47°49' W 005°08'612.1
2017-Nov-16 04:01N 47°46' W 004°60'612.3
2017-Nov-16 03:30N 47°43' W 004°51'712.3
2017-Nov-16 02:59N 47°41' W 004°43'612.3
2017-Nov-16 02:30N 47°38' W 004°34'612.3
2017-Nov-16 02:00N 47°35' W 004°27'612.5
2017-Nov-16 01:31N 47°33' W 004°18'612.7
2017-Nov-16 01:00N 47°30' W 004°10'713.0
2017-Nov-16 00:30N 47°27' W 004°01'612.9
2017-Nov-16 00:00N 47°24' W 003°52'714.7
2017-Nov-15 23:30N 47°21' W 003°43'611.1
2017-Nov-15 23:00N 47°19' W 003°35'713.1
2017-Nov-15 22:30N 47°16' W 003°27'613.0
2017-Nov-15 22:00N 47°13' W 003°18'612.7
2017-Nov-15 21:30N 47°10' W 003°10'612.8
2017-Nov-15 21:01N 47°07' W 003°01'713.1
2017-Nov-15 20:30N 47°04' W 002°53'713.4
2017-Nov-15 20:00N 47°02' W 002°43'612.4
2017-Nov-15 19:30N 47°03' W 002°34'713.7
2017-Nov-15 19:01N 47°06' W 002°26'611.4
2017-Nov-15 18:31N 47°09' W 002°19'714.0
2017-Nov-15 18:00N 47°15' W 002°13'4 7.3
2017-Nov-15 17:29N 47°18' W 002°09'0 0.0
2017-Nov-15 16:59N 47°18' W 002°09'0 0.0
2017-Nov-15 16:29N 47°18' W 002°09'0 0.0
2017-Nov-15 15:59N 47°18' W 002°09'0 0.0
2017-Nov-15 15:23N 47°18' W 002°09'0 0.0
2017-Nov-15 14:59N 47°18' W 002°09'0 0.0
2017-Nov-15 14:29N 47°18' W 002°09'0 0.0
2017-Nov-15 13:56N 47°18' W 002°09'0 0.0
2017-Nov-15 13:26N 47°18' W 002°09'0 0.0
2017-Nov-15 12:59N 47°18' W 002°09'0 0.0
2017-Nov-15 12:20N 47°18' W 002°09'0 0.0
2017-Nov-15 11:59N 47°18' W 002°09'0 0.0
2017-Nov-15 11:29N 47°18' W 002°09'0 0.0
2017-Nov-15 10:59N 47°18' W 002°09'0 0.0
2017-Nov-15 10:29N 47°18' W 002°09'0 0.0
2017-Nov-15 09:59N 47°18' W 002°09'0 0.3
2017-Nov-15 09:30N 47°18' W 002°09'3 6.4
2017-Nov-15 09:00N 47°16' W 002°12'713.4
2017-Nov-15 08:31N 47°10' W 002°18'611.4
2017-Nov-15 08:01N 47°06' W 002°24'714.8
2017-Nov-15 07:30N 47°02' W 002°33'714.4
2017-Nov-15 07:00N 46°59' W 002°43'714.4
2017-Nov-15 06:31N 46°58' W 002°53'714.1
2017-Nov-15 06:00N 46°57' W 003°03'714.3
2017-Nov-15 05:30N 46°57' W 003°14'2 3.3
2017-Nov-15 05:00N 46°57' W 003°16'0 0.7
2017-Nov-15 04:31N 46°57' W 003°16'2 3.4
2017-Nov-15 04:01N 46°57' W 003°18'611.2
2017-Nov-15 03:30N 46°56' W 003°26'613.0
2017-Nov-15 03:01N 46°55' W 003°36'713.1
2017-Nov-15 02:29N 46°55' W 003°46'613.0
2017-Nov-15 02:01N 46°54' W 003°55'713.0
2017-Nov-15 01:30N 46°54' W 004°04'612.9
2017-Nov-15 01:01N 46°54' W 004°14'613.0
2017-Nov-15 00:31N 46°54' W 004°23'713.3
2017-Nov-15 00:00N 46°54' W 004°33'713.2
2017-Nov-14 23:28N 46°53' W 004°43'613.5
2017-Nov-14 23:00N 46°53' W 004°53'813.8
2017-Nov-14 22:27N 46°52' W 005°04'613.6
2017-Nov-14 22:00N 46°52' W 005°12'611.2
2017-Nov-14 21:30N 46°52' W 005°21'612.9
2017-Nov-14 21:00N 46°51' W 005°30'712.8
2017-Nov-14 20:28N 46°51' W 005°40'612.8
2017-Nov-14 20:00N 46°51' W 005°49'713.7
2017-Nov-14 19:30N 46°50' W 005°59'714.1
2017-Nov-14 19:00N 46°50' W 006°09'714.4
2017-Nov-14 18:30N 46°50' W 006°19'814.5
2017-Nov-14 17:59N 46°50' W 006°31'814.6
2017-Nov-14 17:26N 46°49' W 006°42'914.7
2017-Nov-14 16:48N 46°49' W 006°56'514.5
2017-Nov-14 16:30N 46°48' W 007°02'  

Dump ship's entire track history